createdAt,value
2018-04-18T00:02:06.233Z,92.90
2018-04-18T00:04:40.530Z,93.10
2018-04-18T00:07:12.428Z,93.40
2018-04-18T00:09:42.651Z,93.80
2018-04-18T00:12:12.872Z,94.00
2018-04-18T00:14:44.016Z,94.20
2018-04-18T00:17:15.159Z,94.40
2018-04-18T00:19:47.217Z,94.60
2018-04-18T00:22:17.146Z,94.90
2018-04-18T00:24:47.363Z,95.10
2018-04-18T00:27:18.201Z,95.20
2018-04-18T00:29:47.955Z,95.50
2018-04-18T00:32:17.430Z,95.60
2018-04-18T00:34:47.607Z,95.90
2018-04-18T00:37:17.175Z,95.90
2018-04-18T00:39:46.590Z,96.20
2018-04-18T00:42:15.990Z,96.40
2018-04-18T00:44:45.378Z,96.80
2018-04-18T00:47:14.830Z,97.00
2018-04-18T00:49:44.181Z,97.40
2018-04-18T00:52:13.771Z,97.60
2018-04-18T00:54:46.971Z,97.80
2018-04-18T00:57:18.070Z,98.40
2018-04-18T00:59:49.257Z,98.70
2018-04-18T01:02:18.893Z,99.00
2018-04-18T01:04:52.015Z,99.80
2018-04-18T01:10:42.720Z,99.90
2018-04-18T01:13:12.888Z,99.90
2018-04-18T01:15:46.338Z,99.90
2018-04-18T01:18:18.578Z,99.90
2018-04-18T01:20:53.146Z,99.90
2018-04-18T01:23:23.639Z,99.90
2018-04-18T01:25:52.946Z,99.90
2018-04-18T01:28:22.410Z,99.90
2018-04-18T01:31:09.671Z,99.90
2018-04-18T01:33:39.531Z,99.90
2018-04-18T01:38:44.902Z,99.90
2018-04-18T01:41:14.325Z,99.90
2018-04-18T01:43:43.757Z,99.90
2018-04-18T01:46:13.019Z,99.90
2018-04-18T01:48:42.655Z,99.90
2018-04-18T01:51:11.972Z,99.90
2018-04-18T01:53:44.383Z,99.90
2018-04-18T01:56:14.667Z,99.90
2018-04-18T01:58:44.079Z,99.90
2018-04-18T02:01:13.458Z,99.90
2018-04-18T02:03:42.738Z,99.90
2018-04-18T02:06:12.895Z,99.90
2018-04-18T02:08:42.385Z,99.90
2018-04-18T02:11:11.721Z,99.90
2018-04-18T02:13:42.020Z,99.90
2018-04-18T02:16:11.405Z,99.90
2018-04-18T02:18:41.081Z,99.90
2018-04-18T02:21:15.190Z,99.90
2018-04-18T02:23:45.797Z,99.90
2018-04-18T02:26:15.220Z,99.90
2018-04-18T02:28:52.159Z,99.90
2018-04-18T02:31:22.041Z,99.90
2018-04-18T02:33:53.215Z,99.90
2018-04-18T02:36:23.540Z,99.90
2018-04-18T02:38:53.947Z,99.90
2018-04-18T02:41:23.457Z,99.90
2018-04-18T02:43:53.790Z,99.90
2018-04-18T02:46:27.981Z,99.90
2018-04-18T02:49:41.410Z,99.90
2018-04-18T02:52:12.190Z,99.90
2018-04-18T02:58:12.920Z,99.90
2018-04-18T03:00:42.730Z,99.90
2018-04-18T03:03:12.347Z,99.90
2018-04-18T03:05:41.807Z,99.90
2018-04-18T03:08:11.174Z,99.90
2018-04-18T03:11:18.857Z,99.90
2018-04-18T03:13:48.308Z,99.90
2018-04-18T03:16:17.644Z,99.90
2018-04-18T03:18:47.840Z,99.90
2018-04-18T03:21:20.168Z,99.90
2018-04-18T03:23:54.724Z,99.90
2018-04-18T03:26:25.623Z,99.90
2018-04-18T03:28:57.281Z,99.90
2018-04-18T03:31:29.297Z,99.90
2018-04-18T03:33:58.996Z,99.90
2018-04-18T03:36:28.768Z,99.90
2018-04-18T03:38:58.129Z,99.90
2018-04-18T03:41:27.429Z,99.90
2018-04-18T03:43:57.615Z,99.90
2018-04-18T03:46:26.990Z,99.90
2018-04-18T03:48:57.553Z,99.90
2018-04-18T03:51:28.497Z,99.90
2018-04-18T03:53:57.887Z,99.90
2018-04-18T03:56:27.157Z,99.90
2018-04-18T03:58:57.161Z,99.90
2018-04-18T04:01:26.418Z,99.90
2018-04-18T04:03:55.736Z,99.90
2018-04-18T04:06:25.184Z,99.90
2018-04-18T04:08:55.236Z,99.90
2018-04-18T04:11:24.544Z,99.90
2018-04-18T04:13:54.632Z,99.90
2018-04-18T04:16:35.097Z,99.90
2018-04-18T04:19:15.630Z,99.90
2018-04-18T04:21:57.239Z,99.90
2018-04-18T04:24:39.508Z,99.90
2018-04-18T04:27:09.389Z,99.90
2018-04-18T04:29:38.841Z,99.90
2018-04-18T04:32:08.124Z,99.90
2018-04-18T04:34:48.514Z,99.90
2018-04-18T04:37:18.325Z,99.90
2018-04-18T04:39:47.682Z,99.90
2018-04-18T04:42:17.052Z,99.90
2018-04-18T04:44:46.392Z,99.90
2018-04-18T04:47:15.789Z,99.90
2018-04-18T04:49:45.161Z,99.90
2018-04-18T04:52:14.607Z,99.90
2018-04-18T04:54:44.055Z,99.90
2018-04-18T04:57:13.315Z,99.90
2018-04-18T04:59:42.641Z,99.90
2018-04-18T05:02:12.847Z,99.90
2018-04-18T05:04:42.111Z,99.90
2018-04-18T05:07:11.669Z,99.90
2018-04-18T05:09:41.814Z,99.90
2018-04-18T05:12:11.185Z,99.90
2018-04-18T05:14:41.263Z,99.90
2018-04-18T05:17:10.698Z,99.90
2018-04-18T05:19:41.439Z,99.90
2018-04-18T05:25:42.816Z,99.90
2018-04-18T05:28:12.127Z,99.90
2018-04-18T05:30:41.654Z,99.90
2018-04-18T05:33:11.464Z,99.90
2018-04-18T05:35:40.789Z,99.90
2018-04-18T05:38:10.313Z,99.90
2018-04-18T05:40:40.949Z,99.90
2018-04-18T05:43:10.317Z,99.90
2018-04-18T05:45:39.579Z,99.90
2018-04-18T05:48:09.857Z,99.90
2018-04-18T05:50:39.157Z,99.90
2018-04-18T05:53:08.745Z,99.90
2018-04-18T05:55:38.018Z,99.90
2018-04-18T05:58:07.475Z,99.90
2018-04-18T06:00:37.536Z,99.90
2018-04-18T06:03:06.970Z,99.90
2018-04-18T06:05:36.346Z,99.90
2018-04-18T06:08:05.829Z,99.90
2018-04-18T06:10:35.206Z,99.90
2018-04-18T06:13:06.022Z,99.90
2018-04-18T06:15:36.182Z,99.90
2018-04-18T06:18:05.488Z,99.90
2018-04-18T06:20:34.994Z,99.90
2018-04-18T06:23:04.257Z,99.90
2018-04-18T06:25:33.651Z,99.90
2018-04-18T06:28:02.961Z,99.90
2018-04-18T06:30:32.308Z,99.90
2018-04-18T06:33:01.570Z,99.90
2018-04-18T06:35:30.992Z,99.90
2018-04-18T06:38:00.260Z,99.90
2018-04-18T06:40:29.776Z,99.90
2018-04-18T06:42:59.089Z,99.90
2018-04-18T06:45:28.456Z,99.90
2018-04-18T06:47:57.712Z,99.90
2018-04-18T06:50:27.903Z,99.90
2018-04-18T06:52:57.185Z,99.90
2018-04-18T06:55:26.541Z,99.90
2018-04-18T06:57:56.642Z,99.90
2018-04-18T07:00:25.995Z,99.90
2018-04-18T07:02:55.262Z,99.90
2018-04-18T07:05:24.680Z,99.90
2018-04-18T07:07:53.938Z,99.90
2018-04-18T07:10:24.548Z,99.90
2018-04-18T07:12:54.004Z,99.90
2018-04-18T07:15:23.321Z,99.90
2018-04-18T07:17:52.684Z,99.90
2018-04-18T07:20:22.061Z,99.90
2018-04-18T07:22:51.325Z,99.90
2018-04-18T07:25:20.677Z,99.90
2018-04-18T07:27:49.982Z,99.90
2018-04-18T07:30:19.510Z,99.90
2018-04-18T07:32:48.780Z,99.90
2018-04-18T07:35:18.353Z,99.90
2018-04-18T07:37:47.606Z,99.90
2018-04-18T07:40:16.970Z,99.90
2018-04-18T07:46:18.031Z,99.90
2018-04-18T07:48:48.074Z,99.90
2018-04-18T07:51:17.400Z,99.90
2018-04-18T07:53:46.830Z,99.90
2018-04-18T07:56:16.109Z,99.90
2018-04-18T07:58:45.477Z,99.90
2018-04-18T08:01:14.869Z,99.90
2018-04-18T08:03:44.896Z,99.90
2018-04-18T08:06:14.268Z,99.90
2018-04-18T08:08:43.688Z,99.90
2018-04-18T08:11:13.076Z,99.90
2018-04-18T08:13:42.348Z,99.90
2018-04-18T08:16:11.772Z,99.90
2018-04-18T08:18:41.037Z,99.90
2018-04-18T08:21:13.448Z,99.90
2018-04-18T08:27:04.253Z,99.90
2018-04-18T08:29:33.634Z,99.90
2018-04-18T08:32:03.033Z,99.90
2018-04-18T08:34:32.495Z,99.90
2018-04-18T08:37:01.912Z,99.90
2018-04-18T08:43:02.150Z,99.90
2018-04-18T08:45:31.561Z,99.90
2018-04-18T08:48:01.021Z,99.90
2018-04-18T08:50:31.905Z,99.90
2018-04-18T08:53:01.403Z,99.90
2018-04-18T08:55:30.919Z,99.90
2018-04-18T08:58:00.382Z,99.90
2018-04-18T09:00:29.963Z,99.90
2018-04-18T09:02:59.507Z,99.90
2018-04-18T09:08:50.453Z,99.90
2018-04-18T09:11:19.874Z,99.90
2018-04-18T09:13:50.192Z,99.90
2018-04-18T09:16:19.664Z,99.90
2018-04-18T09:18:49.069Z,99.90
2018-04-18T09:24:47.049Z,99.90
2018-04-18T09:27:16.484Z,99.90
2018-04-18T09:29:45.892Z,99.90
2018-04-18T09:32:15.365Z,99.90
2018-04-18T09:34:44.807Z,99.90
2018-04-18T09:37:14.397Z,99.90
2018-04-18T09:39:43.905Z,99.90
2018-04-18T09:42:13.315Z,99.90
2018-04-18T09:44:42.746Z,99.90
2018-04-18T09:47:12.267Z,99.90
2018-04-18T09:49:41.719Z,99.90
2018-04-18T09:52:11.152Z,99.90
2018-04-18T09:54:40.649Z,99.90
2018-04-18T09:57:10.065Z,99.90
2018-04-18T09:59:39.481Z,99.90
2018-04-18T10:02:14.158Z,99.90
2018-04-18T10:04:45.651Z,99.90
2018-04-18T10:07:16.017Z,99.90
2018-04-18T10:09:46.223Z,99.90
2018-04-18T10:12:16.810Z,99.90
2018-04-18T10:14:46.465Z,99.90
2018-04-18T10:17:15.902Z,99.90
2018-04-18T10:19:45.331Z,99.90
2018-04-18T10:22:14.772Z,99.90
2018-04-18T10:24:44.257Z,99.90
2018-04-18T10:27:13.679Z,99.90
2018-04-18T10:29:45.844Z,99.90
2018-04-18T10:32:20.001Z,99.90
2018-04-18T10:34:50.979Z,99.90
2018-04-18T10:37:21.855Z,99.90
2018-04-18T10:39:51.327Z,99.90
2018-04-18T10:42:23.594Z,99.90
2018-04-18T10:44:54.048Z,99.90
2018-04-18T10:47:24.366Z,99.90
2018-04-18T10:49:53.916Z,99.90
2018-04-18T10:52:24.574Z,99.90
2018-04-18T10:54:55.006Z,99.90
2018-04-18T10:57:25.309Z,99.90
2018-04-18T10:59:55.089Z,99.90
2018-04-18T11:02:24.518Z,99.90
2018-04-18T11:04:53.941Z,99.90
2018-04-18T11:07:23.454Z,99.90
2018-04-18T11:09:52.850Z,99.90
2018-04-18T11:12:22.253Z,99.90
2018-04-18T11:14:51.793Z,99.90
2018-04-18T11:17:21.205Z,99.90
2018-04-18T11:19:50.626Z,99.90
2018-04-18T11:22:22.828Z,99.90
2018-04-18T11:24:52.968Z,99.90
2018-04-18T11:27:22.488Z,99.90
2018-04-18T11:29:52.926Z,99.90
2018-04-18T11:32:22.384Z,99.90
2018-04-18T11:34:51.876Z,99.90
2018-04-18T11:37:21.504Z,99.90
2018-04-18T11:39:51.010Z,99.90
2018-04-18T11:42:21.313Z,99.90
2018-04-18T11:44:50.863Z,99.90
2018-04-18T11:47:20.308Z,99.90
2018-04-18T11:49:49.900Z,99.90
2018-04-18T11:52:19.349Z,99.90
2018-04-18T11:54:48.784Z,99.90
2018-04-18T11:57:18.217Z,99.90
2018-04-18T12:00:01.562Z,99.90
2018-04-18T12:05:51.360Z,99.90
2018-04-18T12:08:20.528Z,99.90
2018-04-18T12:10:50.657Z,99.90
2018-04-18T12:13:20.115Z,99.90
2018-04-18T12:19:20.808Z,99.90
2018-04-18T12:21:51.763Z,99.90
2018-04-18T12:24:23.921Z,99.90
2018-04-18T12:26:59.469Z,99.90
2018-04-18T12:29:32.241Z,99.90
2018-04-18T12:32:01.953Z,99.90
2018-04-18T12:34:33.140Z,99.90
2018-04-18T12:37:02.779Z,99.90
2018-04-18T12:39:32.326Z,99.90
2018-04-18T12:42:02.015Z,99.90
2018-04-18T12:44:31.669Z,99.90
2018-04-18T12:47:01.296Z,99.90
2018-04-18T12:49:31.581Z,99.90
2018-04-18T12:52:01.092Z,99.90
2018-04-18T12:54:31.179Z,99.90
2018-04-18T12:57:00.746Z,99.90
2018-04-18T12:59:32.549Z,99.90
2018-04-18T13:02:02.164Z,99.90
2018-04-18T13:04:34.740Z,99.90
2018-04-18T13:07:04.417Z,99.90
2018-04-18T13:09:35.457Z,99.90
2018-04-18T13:12:04.891Z,99.90
2018-04-18T13:14:35.224Z,99.90
2018-04-18T13:17:05.173Z,99.90
2018-04-18T13:19:35.731Z,99.90
2018-04-18T13:22:06.603Z,99.90
2018-04-18T13:24:38.755Z,99.90
2018-04-18T13:27:09.099Z,99.90
2018-04-18T13:29:39.665Z,99.90
2018-04-18T13:32:09.237Z,99.90
2018-04-18T13:34:38.688Z,99.60
2018-04-18T13:37:08.189Z,98.70
2018-04-18T13:39:37.672Z,98.20
2018-04-18T13:42:08.141Z,97.20
2018-04-18T13:44:37.650Z,97.10
2018-04-18T13:47:07.205Z,95.40
2018-04-18T13:49:36.656Z,95.60
2018-04-18T13:52:06.420Z,95.60
2018-04-18T13:54:36.011Z,95.80
2018-04-18T13:57:05.480Z,95.60
2018-04-18T13:59:35.324Z,94.20
2018-04-18T14:02:04.919Z,93.00
2018-04-18T14:04:34.472Z,92.10
2018-04-18T14:07:05.206Z,91.50
2018-04-18T14:09:35.539Z,91.70
2018-04-18T14:12:05.179Z,91.70
2018-04-18T14:14:34.657Z,91.50
2018-04-18T14:17:04.261Z,90.00
2018-04-18T14:19:33.799Z,88.90
2018-04-18T14:22:03.355Z,87.70
2018-04-18T14:24:33.299Z,85.30
2018-04-18T14:27:03.348Z,84.70
2018-04-18T14:29:33.487Z,84.20
2018-04-18T14:32:03.150Z,82.30
2018-04-18T14:34:33.634Z,81.10
2018-04-18T14:37:04.043Z,80.10
2018-04-18T14:39:33.655Z,80.00
2018-04-18T14:42:03.296Z,79.30
2018-04-18T14:44:39.330Z,77.60
2018-04-18T14:47:09.173Z,77.60
2018-04-18T14:49:39.490Z,78.80
2018-04-18T14:52:11.771Z,75.90
2018-04-18T14:54:45.539Z,75.20
2018-04-18T14:57:16.999Z,75.20
2018-04-18T14:59:48.097Z,73.50
2018-04-18T15:02:21.621Z,73.00
2018-04-18T15:04:51.219Z,72.60
2018-04-18T15:07:21.290Z,71.30
2018-04-18T15:09:51.004Z,68.90
2018-04-18T15:12:23.557Z,69.20
2018-04-18T15:14:54.623Z,69.10
2018-04-18T15:17:24.297Z,70.40
2018-04-18T15:19:54.678Z,70.00
2018-04-18T15:22:24.282Z,69.80
2018-04-18T15:24:55.267Z,69.00
2018-04-18T15:27:24.939Z,69.00
2018-04-18T15:33:30.617Z,64.20
2018-04-18T15:36:00.967Z,64.10
2018-04-18T15:38:36.000Z,65.90
2018-04-18T15:41:07.510Z,65.20
2018-04-18T15:43:37.530Z,64.20
2018-04-18T15:46:07.191Z,68.00
2018-04-18T15:48:36.633Z,68.60
2018-04-18T15:51:07.357Z,66.40
2018-04-18T15:53:36.979Z,65.00
2018-04-18T15:56:06.570Z,63.70
2018-04-18T15:58:52.814Z,60.20
2018-04-18T16:01:24.484Z,57.10
2018-04-18T16:03:54.024Z,57.10
2018-04-18T16:06:24.697Z,57.40
2018-04-18T16:08:54.170Z,60.40
2018-04-18T16:11:31.918Z,59.40
2018-04-18T16:14:11.147Z,58.20
2018-04-18T16:16:40.757Z,57.40
2018-04-18T16:19:11.042Z,59.10
2018-04-18T16:21:46.816Z,63.50
2018-04-18T16:24:17.246Z,66.00
2018-04-18T16:26:46.632Z,67.80
2018-04-18T16:29:27.995Z,69.60
2018-04-18T16:31:57.314Z,65.30
2018-04-18T16:34:26.694Z,61.90
2018-04-18T16:36:56.860Z,63.40
2018-04-18T16:39:26.247Z,63.40
2018-04-18T16:45:17.335Z,62.20
2018-04-18T16:47:46.809Z,59.50
2018-04-18T16:50:16.386Z,59.70
2018-04-18T16:52:46.354Z,61.10
2018-04-18T16:55:16.417Z,61.00
2018-04-18T16:57:49.775Z,60.10
2018-04-18T17:00:19.915Z,58.60
2018-04-18T17:02:50.059Z,57.50
2018-04-18T17:05:19.537Z,56.70
2018-04-18T17:07:49.180Z,57.50
2018-04-18T17:10:18.782Z,57.00
2018-04-18T17:12:48.373Z,57.20
2018-04-18T17:15:22.419Z,56.50
2018-04-18T17:20:30.862Z,54.00
2018-04-18T17:23:06.632Z,51.90
2018-04-18T17:25:40.724Z,52.20
2018-04-18T17:28:13.109Z,52.60
2018-04-18T17:30:42.633Z,52.30
2018-04-18T17:33:12.831Z,52.90
2018-04-18T17:35:46.773Z,52.80
2018-04-18T17:38:23.046Z,52.40
2018-04-18T17:40:56.109Z,54.30
2018-04-18T17:43:30.536Z,54.20
2018-04-18T17:46:06.113Z,54.00
2018-04-18T17:48:37.679Z,52.80
2018-04-18T17:51:09.130Z,54.00
2018-04-18T17:53:40.131Z,52.70
2018-04-18T17:56:10.770Z,50.30
2018-04-18T17:58:40.185Z,51.60
2018-04-18T18:01:10.216Z,51.90
2018-04-18T18:03:41.351Z,54.40
2018-04-18T18:06:11.935Z,53.70
2018-04-18T18:08:55.444Z,53.50
2018-04-18T18:11:25.135Z,53.80
2018-04-18T18:13:55.320Z,53.90
2018-04-18T18:16:32.901Z,51.40
2018-04-18T18:19:05.536Z,51.30
2018-04-18T18:24:22.973Z,52.00
2018-04-18T18:26:55.278Z,52.40
2018-04-18T18:29:24.890Z,52.40
2018-04-18T18:32:05.470Z,51.80
2018-04-18T18:34:36.421Z,52.10
2018-04-18T18:37:06.011Z,50.60
2018-04-18T18:39:36.375Z,50.10
2018-04-18T18:42:05.888Z,49.90
2018-04-18T18:44:35.375Z,50.70
2018-04-18T18:47:06.137Z,51.30
2018-04-18T18:49:35.798Z,51.00
2018-04-18T18:52:05.261Z,50.20
2018-04-18T18:58:08.135Z,50.80
2018-04-18T19:00:38.939Z,50.70
2018-04-18T19:03:17.236Z,50.10
2018-04-18T19:05:58.709Z,52.30
2018-04-18T19:08:28.868Z,52.90
2018-04-18T19:10:58.583Z,51.50
2018-04-18T19:13:29.396Z,49.50
2018-04-18T19:15:59.441Z,51.30
2018-04-18T19:18:32.254Z,51.30
2018-04-18T19:21:01.609Z,50.80
2018-04-18T19:23:33.656Z,50.00
2018-04-18T19:26:06.489Z,49.70
2018-04-18T19:35:19.548Z,48.60
2018-04-18T19:37:49.055Z,51.80
2018-04-18T19:40:18.644Z,52.10
2018-04-18T19:42:48.810Z,53.60
2018-04-18T19:45:18.522Z,54.60
2018-04-18T19:47:52.719Z,54.30
2018-04-18T19:50:25.851Z,53.20
2018-04-18T19:52:59.662Z,54.10
2018-04-18T19:55:32.701Z,54.60
2018-04-18T19:58:02.338Z,54.60
2018-04-18T20:00:32.399Z,55.60
2018-04-18T20:03:05.253Z,57.00
2018-04-18T20:09:10.279Z,65.10
2018-04-18T20:11:40.075Z,66.20
2018-04-18T20:14:10.394Z,72.30
2018-04-18T20:16:39.973Z,76.10
2018-04-18T20:19:11.725Z,80.00
2018-04-18T20:21:41.608Z,81.20
2018-04-18T20:24:11.089Z,81.40
2018-04-18T20:26:40.649Z,81.70
2018-04-18T20:29:10.147Z,81.80
2018-04-18T20:31:39.858Z,80.30
2018-04-18T20:34:16.514Z,77.50
2018-04-18T20:36:53.830Z,77.10
2018-04-18T20:39:24.090Z,78.00
2018-04-18T20:41:56.965Z,78.70
2018-04-18T20:44:27.112Z,76.40
2018-04-18T20:47:01.277Z,75.10
2018-04-18T20:49:34.075Z,73.30
2018-04-18T20:52:06.277Z,75.10
2018-04-18T20:54:38.326Z,77.30
2018-04-18T20:59:48.295Z,80.80
2018-04-18T21:02:18.665Z,81.50
2018-04-18T21:04:48.383Z,83.20
2018-04-18T21:10:49.927Z,87.40
2018-04-18T21:13:19.233Z,86.80
2018-04-18T21:15:48.485Z,88.10
2018-04-18T21:18:17.836Z,89.00
2018-04-18T21:20:47.123Z,90.30
2018-04-18T21:23:16.532Z,90.30
2018-04-18T21:25:45.918Z,89.40
2018-04-18T21:28:15.218Z,87.90
2018-04-18T21:30:44.472Z,89.70
2018-04-18T21:36:36.758Z,91.60
2018-04-18T21:39:06.680Z,92.40
2018-04-18T21:41:37.781Z,92.50
2018-04-18T21:44:07.980Z,91.80
2018-04-18T21:46:38.340Z,91.60
2018-04-18T21:49:08.025Z,91.60
2018-04-18T21:51:38.306Z,92.00
2018-04-18T21:54:08.794Z,92.10
2018-04-18T21:56:38.469Z,91.60
2018-04-18T21:59:08.806Z,92.90
2018-04-18T22:01:39.415Z,92.90
2018-04-18T22:04:09.096Z,93.40
2018-04-18T22:06:38.804Z,93.00
2018-04-18T22:09:08.626Z,93.50
2018-04-18T22:11:38.237Z,95.00
2018-04-18T22:14:07.913Z,95.40
2018-04-18T22:16:37.529Z,94.50
2018-04-18T22:19:11.784Z,94.20
2018-04-18T22:21:41.524Z,94.60
2018-04-18T22:24:12.713Z,96.10
2018-04-18T22:29:24.098Z,96.40
2018-04-18T22:31:59.976Z,96.70
2018-04-18T22:34:34.309Z,96.40
2018-04-18T22:37:03.964Z,95.70
2018-04-18T22:39:33.588Z,96.60
2018-04-18T22:42:03.207Z,96.50
2018-04-18T22:44:32.867Z,96.20
2018-04-18T22:47:02.509Z,96.80
2018-04-18T22:49:32.155Z,97.00
2018-04-18T22:52:01.757Z,97.30
2018-04-18T22:54:31.339Z,98.10
2018-04-18T22:57:01.146Z,98.80
2018-04-18T22:59:30.733Z,98.10
2018-04-18T23:02:02.209Z,99.50
2018-04-18T23:04:31.831Z,99.50
2018-04-18T23:07:01.538Z,99.90
2018-04-18T23:09:31.124Z,99.90
2018-04-18T23:12:00.751Z,99.90
2018-04-18T23:14:30.417Z,99.90
2018-04-18T23:17:00.045Z,99.90
2018-04-18T23:19:29.647Z,99.90
2018-04-18T23:21:59.313Z,99.90
2018-04-18T23:24:29.129Z,99.90
2018-04-18T23:26:58.750Z,99.90
2018-04-18T23:29:28.443Z,99.90
2018-04-18T23:31:58.111Z,99.90
2018-04-18T23:34:28.387Z,99.90
2018-04-18T23:36:58.099Z,99.90
2018-04-18T23:39:28.389Z,99.90
2018-04-18T23:41:58.147Z,99.90
2018-04-18T23:44:27.882Z,99.90
2018-04-18T23:46:57.780Z,99.90
2018-04-18T23:49:29.135Z,99.90
2018-04-18T23:51:58.880Z,99.90
2018-04-18T23:55:08.277Z,99.90
2018-04-18T23:57:42.532Z,99.90
